Time;durP1;ratioP1;P1;durP2;ratioP2;P2;SDS_P1;SDS_P2;PMS_P1;PMS_P2;Temp;Humidity;BMP_temperature;BMP_pressure;BME280_temperature;BME280_humidity;BME280_pressure;Samples;Min_cycle;Max_cycle;Signal;HPM_P1;HPM_P2
2023/03/30 00:01:19;;;;;;;2.40;1.40;;;18.20;28.50;;;;;;5002899;28;20421;-69
2023/03/30 00:03:45;;;;;;;2.17;1.40;;;18.10;29.60;;;;;;4994004;28;20191;-69
2023/03/30 00:06:14;;;;;;;3.50;2.37;;;18.30;28.80;;;;;;5000641;28;20447;-69
2023/03/30 00:08:39;;;;;;;1.80;1.20;;;17.90;31.30;;;;;;5003663;28;20529;-69
2023/03/30 00:11:08;;;;;;;2.17;1.50;;;17.30;33.30;;;;;;5011647;28;20902;-69
2023/03/30 00:13:35;;;;;;;2.73;1.73;;;17.40;32.90;;;;;;4994278;28;20190;-69
2023/03/30 00:16:02;;;;;;;1.90;1.20;;;17.50;30.50;;;;;;4983937;28;20461;-69
2023/03/30 00:18:28;;;;;;;1.90;1.30;;;17.80;30.80;;;;;;5000610;28;20943;-69
2023/03/30 00:20:54;;;;;;;2.87;1.53;;;18.00;29.10;;;;;;5011370;28;20424;-69
2023/03/30 00:23:21;;;;;;;1.90;1.30;;;18.10;28.50;;;;;;5000753;28;20495;-69
2023/03/30 00:25:47;;;;;;;1.90;1.30;;;18.50;27.90;;;;;;5001146;28;20212;-69
2023/03/30 00:28:13;;;;;;;12.20;2.60;;;18.80;27.60;;;;;;5007044;28;20464;-69
2023/03/30 00:30:38;;;;;;;1.90;1.30;;;18.60;27.80;;;;;;4987591;28;20433;-69
2023/03/30 00:33:04;;;;;;;2.10;1.33;;;18.40;28.50;;;;;;5006736;28;20185;-69
2023/03/30 00:35:30;;;;;;;2.00;1.40;;;18.50;28.80;;;;;;5003074;28;20199;-69
2023/03/30 00:37:57;;;;;;;1.90;1.23;;;19.00;27.00;;;;;;5011103;28;20192;-69
2023/03/30 00:40:23;;;;;;;2.00;1.40;;;19.10;27.60;;;;;;5005718;28;20594;-69
2023/03/30 00:42:49;;;;;;;1.90;1.30;;;19.10;27.20;;;;;;4994425;28;20440;-69
2023/03/30 00:45:21;;;;;;;1.80;1.20;;;19.20;27.50;;;;;;5001116;28;20550;-70
2023/03/30 00:48:01;;;;;;;1.87;1.20;;;19.30;27.00;;;;;;4982040;28;20191;-70
2023/03/30 00:50:42;;;;;;;2.30;1.40;;;19.10;28.00;;;;;;4996199;28;20505;-70
2023/03/30 00:53:18;;;;;;;1.90;1.20;;;19.00;28.00;;;;;;5002406;28;20471;-70
2023/03/30 00:55:46;;;;;;;2.47;1.40;;;18.90;27.70;;;;;;4994895;28;20466;-70
2023/03/30 00:58:14;;;;;;;2.10;1.40;;;19.10;27.60;;;;;;5004811;28;20703;-69
2023/03/30 01:00:42;;;;;;;1.80;1.20;;;19.10;28.00;;;;;;5006443;28;20438;-68
2023/03/30 01:03:21;;;;;;;2.43;1.67;;;19.10;28.10;;;;;;5006458;28;20418;-69
2023/03/30 01:05:48;;;;;;;2.00;1.37;;;19.20;27.40;;;;;;4990863;28;20494;-69
2023/03/30 01:08:15;;;;;;;3.30;2.20;;;19.20;27.60;;;;;;5007601;28;20500;-69
2023/03/30 01:10:45;;;;;;;1.90;1.30;;;19.20;27.70;;;;;;4975269;28;20475;-69
2023/03/30 01:13:13;;;;;;;2.07;1.40;;;19.10;27.80;;;;;;4975562;28;20408;-69
2023/03/30 01:15:51;;;;;;;2.30;1.30;;;19.20;27.50;;;;;;4984301;28;20446;-69
2023/03/30 01:18:29;;;;;;;1.90;1.23;;;19.00;28.20;;;;;;5004887;28;20526;-69
2023/03/30 01:21:12;;;;;;;1.83;1.20;;;19.30;27.20;;;;;;4987381;28;20538;-69
2023/03/30 01:23:52;;;;;;;1.90;1.30;;;19.10;27.80;;;;;;5009820;28;20435;-69
2023/03/30 01:26:37;;;;;;;1.83;1.20;;;19.20;27.90;;;;;;4998839;28;20538;-69
2023/03/30 01:29:38;;;;;;;1.90;1.30;;;19.30;28.80;;;;;;4994565;28;21126;-69
2023/03/30 01:32:25;;;;;;;1.90;1.20;;;19.20;29.00;;;;;;4999601;28;20457;-70
2023/03/30 01:35:09;;;;;;;2.10;1.40;;;19.20;29.70;;;;;;5000391;28;20438;-70
2023/03/30 01:37:44;;;;;;;1.90;1.20;;;18.20;31.30;;;;;;4996988;28;20497;-70
2023/03/30 01:40:26;;;;;;;2.37;1.77;;;17.60;33.00;;;;;;5005731;28;20490;-70
2023/03/30 01:43:08;;;;;;;1.83;1.20;;;17.20;35.50;;;;;;5014009;28;20443;-69
2023/03/30 01:45:50;;;;;;;2.20;1.50;;;17.00;36.20;;;;;;5000798;28;20465;-70
2023/03/30 01:48:28;;;;;;;2.00;1.40;;;17.40;39.20;;;;;;4995881;28;20483;-70
2023/03/30 01:50:59;;;;;;;2.63;1.40;;;17.90;39.10;;;;;;5005803;28;20466;-70
2023/03/30 01:53:40;;;;;;;2.20;1.50;;;18.00;36.90;;;;;;5005838;28;20472;-70
2023/03/30 01:56:49;;;;;;;1.90;1.30;;;18.20;36.60;;;;;;5005232;28;20437;-69
2023/03/30 01:59:32;;;;;;;2.30;1.43;;;18.30;35.90;;;;;;4953683;28;20540;-70
2023/03/30 02:02:02;;;;;;;2.20;1.43;;;18.10;36.80;;;;;;4952851;29;20438;-70
2023/03/30 02:04:32;;;;;;;1.87;1.30;;;18.00;39.10;;;;;;4952913;29;20937;-70
2023/03/30 02:07:02;;;;;;;1.80;1.20;;;17.60;40.20;;;;;;4950531;29;20439;-69
2023/03/30 02:09:30;;;;;;;2.93;2.07;;;17.20;42.70;;;;;;4945657;28;21049;-69
2023/03/30 02:11:56;;;;;;;1.80;1.20;;;17.20;42.80;;;;;;4962700;28;20447;-70
2023/03/30 02:14:32;;;;;;;1.80;1.20;;;16.90;44.80;;;;;;4957687;28;20446;-69
2023/03/30 02:17:21;;;;;;;1.90;1.30;;;17.40;42.70;;;;;;4952710;29;20502;-69
2023/03/30 02:19:48;;;;;;;1.80;1.20;;;17.40;42.70;;;;;;4933722;29;20470;-70
2023/03/30 02:22:15;;;;;;;1.90;1.23;;;17.60;42.80;;;;;;4960543;28;20430;-70
2023/03/30 02:24:44;;;;;;;1.90;1.20;;;17.70;41.90;;;;;;4952330;29;20944;-70
2023/03/30 02:27:09;;;;;;;1.83;1.20;;;17.60;42.20;;;;;;4953646;28;20442;-70
2023/03/30 02:29:39;;;;;;;2.60;1.67;;;17.20;41.20;;;;;;4964914;28;20497;-70
2023/03/30 02:32:05;;;;;;;1.90;1.20;;;17.00;43.40;;;;;;4961049;28;20174;-70
2023/03/30 02:34:46;;;;;;;2.43;1.60;;;16.80;41.80;;;;;;4996437;28;20526;-70
2023/03/30 02:37:15;;;;;;;3.13;1.40;;;17.00;40.90;;;;;;5004660;28;20180;-70
2023/03/30 02:39:56;;;;;;;2.30;1.37;;;17.30;39.20;;;;;;5003530;28;20446;-70
2023/03/30 02:43:02;;;;;;;1.80;1.20;;;17.20;39.00;;;;;;5005020;28;20412;-69
2023/03/30 02:45:41;;;;;;;2.10;1.37;;;16.50;41.20;;;;;;5000529;28;20556;-70
2023/03/30 02:48:55;;;;;;;2.07;1.60;;;16.40;42.60;;;;;;5008127;28;20543;-70
2023/03/30 02:51:34;;;;;;;2.20;1.50;;;16.30;44.30;;;;;;4998277;28;20436;-70
2023/03/30 02:54:14;;;;;;;1.90;1.30;;;17.60;43.70;;;;;;4996646;28;20453;-70
2023/03/30 02:56:59;;;;;;;2.20;1.60;;;17.00;43.60;;;;;;5001669;28;20454;-70
2023/03/30 02:59:50;;;;;;;2.00;1.37;;;17.10;43.60;;;;;;4990698;28;20414;-70
2023/03/30 03:02:25;;;;;;;3.00;2.03;;;16.80;46.40;;;;;;4994346;28;20445;-70
2023/03/30 03:04:52;;;;;;;2.10;1.50;;;16.90;48.00;;;;;;5006496;28;20864;-70
2023/03/30 03:07:19;;;;;;;1.90;1.30;;;16.90;47.40;;;;;;4995990;28;20528;-70
2023/03/30 03:09:45;;;;;;;2.00;1.30;;;17.40;44.40;;;;;;5004958;28;20476;-70
2023/03/30 03:12:11;;;;;;;1.90;1.30;;;17.50;46.70;;;;;;5006406;28;20447;-70
2023/03/30 03:14:37;;;;;;;1.87;1.30;;;17.30;49.90;;;;;;4996843;28;20251;-70
2023/03/30 03:17:04;;;;;;;2.20;1.40;;;17.10;50.00;;;;;;5007293;28;20181;-70
2023/03/30 03:19:29;;;;;;;2.13;1.50;;;17.00;51.10;;;;;;4996930;28;20455;-70
2023/03/30 03:21:55;;;;;;;2.30;1.50;;;17.30;50.40;;;;;;4994910;28;20526;-70
2023/03/30 03:24:20;;;;;;;3.50;1.90;;;17.70;48.40;;;;;;5000921;28;20205;-70
2023/03/30 03:26:46;;;;;;;1.83;1.20;;;17.80;48.50;;;;;;5012043;28;20191;-70
2023/03/30 03:29:12;;;;;;;1.80;1.20;;;17.20;50.20;;;;;;5012008;28;20193;-70
2023/03/30 03:31:38;;;;;;;1.80;1.20;;;17.00;52.10;;;;;;4995517;28;20863;-69
2023/03/30 03:34:04;;;;;;;1.90;1.30;;;16.90;51.90;;;;;;4991087;28;20243;-70
2023/03/30 03:36:29;;;;;;;1.80;1.30;;;17.00;51.90;;;;;;4997052;28;20609;-70
2023/03/30 03:38:55;;;;;;;2.00;1.40;;;16.80;52.50;;;;;;5002571;28;20474;-70
2023/03/30 03:41:21;;;;;;;2.17;1.50;;;16.80;52.10;;;;;;5003652;28;20556;-70
2023/03/30 03:43:46;;;;;;;1.87;1.30;;;16.30;53.30;;;;;;4992640;28;20539;-70
2023/03/30 03:46:12;;;;;;;1.80;1.20;;;16.00;54.60;;;;;;5002499;28;20172;-69
2023/03/30 03:48:39;;;;;;;2.10;1.43;;;15.90;56.00;;;;;;5012188;28;20216;-70
2023/03/30 03:51:05;;;;;;;1.90;1.33;;;16.30;54.10;;;;;;5011884;28;20192;-70
2023/03/30 03:53:31;;;;;;;2.33;1.40;;;16.70;52.80;;;;;;4990348;28;20892;-70
2023/03/30 03:55:57;;;;;;;2.10;1.43;;;16.60;52.80;;;;;;5000335;28;20471;-70
2023/03/30 03:58:23;;;;;;;4.00;1.60;;;16.40;54.50;;;;;;4999805;28;20174;-70
2023/03/30 04:00:48;;;;;;;2.23;1.40;;;16.40;53.40;;;;;;5012110;28;20440;-69
2023/03/30 04:03:14;;;;;;;2.30;1.47;;;16.40;54.50;;;;;;4996445;28;20949;-70
2023/03/30 04:05:40;;;;;;;1.80;1.30;;;16.40;54.20;;;;;;5005278;28;20209;-69
2023/03/30 04:08:09;;;;;;;1.90;1.30;;;16.20;55.10;;;;;;5011565;28;20545;-69
2023/03/30 04:10:37;;;;;;;1.80;1.20;;;16.20;54.40;;;;;;5011627;28;20411;-70
2023/03/30 04:13:03;;;;;;;1.80;1.20;;;16.50;51.00;;;;;;4993905;28;20817;-70
2023/03/30 04:15:29;;;;;;;1.80;1.20;;;17.00;50.50;;;;;;4994936;28;20453;-70
2023/03/30 04:17:58;;;;;;;1.80;1.20;;;16.80;50.40;;;;;;5010204;28;20177;-70
2023/03/30 04:20:28;;;;;;;2.83;1.70;;;16.90;49.70;;;;;;5010540;28;20491;-70
2023/03/30 04:22:54;;;;;;;1.90;1.40;;;16.60;50.00;;;;;;5011174;28;20405;-69
2023/03/30 04:25:21;;;;;;;1.80;1.20;;;16.70;50.00;;;;;;4996694;28;20459;-69
2023/03/30 04:27:53;;;;;;;1.80;1.20;;;16.60;48.80;;;;;;4994209;28;20437;-69
2023/03/30 04:30:21;;;;;;;2.27;1.63;;;16.50;50.50;;;;;;5002887;28;20449;-70
2023/03/30 04:33:01;;;;;;;4.33;1.50;;;16.50;49.20;;;;;;4992723;28;20774;-70
2023/03/30 04:35:27;;;;;;;1.77;1.20;;;16.50;49.60;;;;;;4988086;28;20464;-70
2023/03/30 04:37:53;;;;;;;1.90;1.30;;;16.50;49.10;;;;;;5045904;23;20895;-70
2023/03/30 04:40:18;;;;;;;1.70;1.20;;;16.00;51.90;;;;;;5014363;28;20449;-70
2023/03/30 04:42:48;;;;;;;1.70;1.20;;;16.00;52.70;;;;;;5014140;28;20184;-69
2023/03/30 04:45:16;;;;;;;2.67;1.40;;;15.70;54.60;;;;;;5002806;28;20183;-69
2023/03/30 04:47:41;;;;;;;1.70;1.20;;;15.50;55.60;;;;;;5005252;28;20449;-70
2023/03/30 04:50:08;;;;;;;1.80;1.20;;;15.50;55.90;;;;;;5015336;28;20420;-70
2023/03/30 04:52:33;;;;;;;1.80;1.20;;;15.60;54.60;;;;;;5014312;28;20440;-69
2023/03/30 04:54:59;;;;;;;1.90;1.40;;;15.70;53.70;;;;;;5013901;28;20428;-70
2023/03/30 04:57:25;;;;;;;1.70;1.10;;;16.20;52.40;;;;;;5014203;28;20258;-70
2023/03/30 04:59:50;;;;;;;2.00;1.30;;;16.30;49.60;;;;;;5009316;28;20178;-70
2023/03/30 05:02:16;;;;;;;2.47;1.67;;;16.80;47.90;;;;;;5009951;28;20212;-70
2023/03/30 05:04:41;;;;;;;1.70;1.17;;;17.10;45.60;;;;;;5014859;28;20175;-70
2023/03/30 05:07:08;;;;;;;2.10;1.50;;;17.20;45.20;;;;;;5014315;28;20225;-70
2023/03/30 05:09:34;;;;;;;2.47;1.30;;;17.20;45.00;;;;;;5013225;28;20261;-68
2023/03/30 05:12:00;;;;;;;2.47;1.33;;;16.80;45.30;;;;;;5010188;28;20801;-70
2023/03/30 05:14:25;;;;;;;1.70;1.17;;;16.00;47.80;;;;;;5005959;28;20432;-69
2023/03/30 05:16:51;;;;;;;1.70;1.20;;;15.80;47.80;;;;;;5014947;28;20185;-70
2023/03/30 05:19:17;;;;;;;1.70;1.17;;;16.30;45.10;;;;;;5013903;28;20178;-69
2023/03/30 05:21:42;;;;;;;1.70;1.10;;;16.30;44.60;;;;;;5010335;28;20186;-70
2023/03/30 05:24:08;;;;;;;1.70;1.20;;;16.50;43.30;;;;;;5011167;28;20662;-70
2023/03/30 05:26:33;;;;;;;2.57;1.67;;;16.80;42.70;;;;;;5008720;28;20212;-70
2023/03/30 05:28:59;;;;;;;1.70;1.20;;;16.90;42.60;;;;;;5013811;28;20205;-69
2023/03/30 05:31:25;;;;;;;1.80;1.40;;;16.80;40.90;;;;;;5014602;28;20184;-69
2023/03/30 05:33:52;;;;;;;1.70;1.20;;;17.00;42.20;;;;;;5013492;28;20479;-69
2023/03/30 05:36:17;;;;;;;1.90;1.40;;;17.20;42.20;;;;;;5011477;28;20524;-69
2023/03/30 05:38:43;;;;;;;1.90;1.40;;;16.70;41.40;;;;;;5014311;28;20656;-69
2023/03/30 05:41:10;;;;;;;1.90;1.47;;;16.50;43.00;;;;;;5013809;28;20217;-70
2023/03/30 05:43:35;;;;;;;2.10;1.53;;;16.90;41.90;;;;;;5013736;28;20179;-71
2023/03/30 05:46:02;;;;;;;2.50;1.57;;;17.00;40.20;;;;;;5011161;28;20432;-70
2023/03/30 05:48:29;;;;;;;1.70;1.20;;;17.10;40.10;;;;;;5002958;28;20583;-70
2023/03/30 05:50:55;;;;;;;1.80;1.30;;;17.10;39.90;;;;;;5014237;28;20419;-70
2023/03/30 05:53:20;;;;;;;1.90;1.40;;;16.70;39.40;;;;;;5014139;28;20482;-70
2023/03/30 05:55:47;;;;;;;1.80;1.30;;;16.40;42.00;;;;;;5014678;28;20417;-70
2023/03/30 05:58:13;;;;;;;1.90;1.33;;;16.40;41.40;;;;;;5000923;28;20233;-70
2023/03/30 06:00:40;;;;;;;2.27;1.60;;;16.40;40.70;;;;;;5007463;28;20475;-70
2023/03/30 06:03:10;;;;;;;2.00;1.40;;;16.50;42.80;;;;;;5016160;28;20423;-70
2023/03/30 06:05:43;;;;;;;2.43;1.80;;;16.60;40.60;;;;;;5014541;28;20863;-70
2023/03/30 06:08:09;;;;;;;15.20;2.17;;;16.90;40.70;;;;;;5010445;28;20559;-70
2023/03/30 06:10:36;;;;;;;2.47;1.50;;;17.00;38.90;;;;;;5013649;28;20459;-70
2023/03/30 06:13:02;;;;;;;1.90;1.30;;;17.50;37.70;;;;;;5012888;28;20432;-70
2023/03/30 06:15:28;;;;;;;1.80;1.20;;;17.40;37.70;;;;;;5013960;28;20413;-69
2023/03/30 06:17:54;;;;;;;1.80;1.20;;;16.60;42.90;;;;;;5011579;28;20456;-70
2023/03/30 06:20:20;;;;;;;1.83;1.20;;;15.60;50.80;;;;;;5013823;28;20186;-70
2023/03/30 06:22:49;;;;;;;1.70;1.20;;;15.70;52.80;;;;;;5016299;28;20173;-71
2023/03/30 06:25:18;;;;;;;2.70;1.50;;;15.40;55.40;;;;;;5015830;28;20409;-70
2023/03/30 06:27:45;;;;;;;1.80;1.30;;;15.00;59.20;;;;;;4995120;28;20879;-70
2023/03/30 06:30:11;;;;;;;1.70;1.20;;;15.20;59.00;;;;;;5007032;28;20435;-70
2023/03/30 06:32:37;;;;;;;2.00;1.50;;;15.70;56.50;;;;;;5007683;28;20433;-70
2023/03/30 06:35:03;;;;;;;1.77;1.20;;;16.00;54.10;;;;;;5012804;28;20791;-70
2023/03/30 06:37:33;;;;;;;1.80;1.30;;;16.10;55.70;;;;;;5012767;28;20795;-69
2023/03/30 06:39:58;;;;;;;1.70;1.20;;;16.40;53.60;;;;;;5006675;28;20535;-70
2023/03/30 06:42:27;;;;;;;1.80;1.30;;;16.20;55.30;;;;;;5010745;28;20501;-70
2023/03/30 06:44:52;;;;;;;3.87;1.97;;;16.60;54.70;;;;;;5009505;28;20181;-70
2023/03/30 06:47:18;;;;;;;1.97;1.20;;;16.80;53.90;;;;;;5009933;28;20531;-70
2023/03/30 06:49:44;;;;;;;1.70;1.20;;;16.60;54.70;;;;;;5011264;28;20686;-70
2023/03/30 06:52:11;;;;;;;1.70;1.23;;;16.60;54.70;;;;;;5012367;28;20433;-70
2023/03/30 06:54:37;;;;;;;1.80;1.30;;;17.00;54.50;;;;;;5008043;28;20825;-70
2023/03/30 06:57:03;;;;;;;1.70;1.20;;;17.20;53.20;;;;;;5011768;28;20526;-70
2023/03/30 06:59:28;;;;;;;1.80;1.40;;;17.30;52.50;;;;;;5012962;28;20218;-70
2023/03/30 07:01:54;;;;;;;1.70;1.23;;;17.50;50.60;;;;;;5012176;28;20190;-70
2023/03/30 07:04:20;;;;;;;2.33;1.93;;;16.40;55.60;;;;;;5011666;28;20201;-70
2023/03/30 07:06:46;;;;;;;3.03;2.10;;;15.40;62.60;;;;;;5013159;28;20225;-70
2023/03/30 07:09:12;;;;;;;1.70;1.20;;;15.10;66.10;;;;;;5012899;28;20868;-66
2023/03/30 07:11:38;;;;;;;1.73;1.23;;;15.10;66.70;;;;;;5011430;28;20611;-68
2023/03/30 07:14:04;;;;;;;1.70;1.20;;;15.20;65.00;;;;;;5001811;28;20512;-67
2023/03/30 07:16:29;;;;;;;1.70;1.20;;;15.30;62.90;;;;;;5009806;28;20310;-67
2023/03/30 07:18:55;;;;;;;1.70;1.30;;;15.30;62.20;;;;;;5012963;28;20404;-72
2023/03/30 07:21:21;;;;;;;1.80;1.40;;;15.10;63.30;;;;;;5006460;28;20177;-74
2023/03/30 07:23:46;;;;;;;3.40;1.90;;;15.00;64.80;;;;;;5009704;28;20180;-74
2023/03/30 07:26:12;;;;;;;2.83;1.83;;;15.20;62.50;;;;;;4985438;28;20186;-76
2023/03/30 07:28:39;;;;;;;4.53;2.23;;;15.20;61.30;;;;;;5012287;28;20203;-74
2023/03/30 07:31:06;;;;;;;2.73;1.70;;;15.40;58.90;;;;;;5004832;28;20170;-72
2023/03/30 07:33:32;;;;;;;1.90;1.47;;;16.00;55.00;;;;;;5010277;28;20542;-68
2023/03/30 07:35:58;;;;;;;3.03;1.90;;;16.50;53.20;;;;;;5009830;28;20574;-68
2023/03/30 07:38:23;;;;;;;1.70;1.20;;;16.80;51.40;;;;;;5010427;28;20228;-68
2023/03/30 07:40:49;;;;;;;1.70;1.10;;;17.40;47.40;;;;;;5010666;28;20243;-68
2023/03/30 07:43:15;;;;;;;2.20;1.63;;;17.90;45.80;;;;;;5011839;28;20672;-68
2023/03/30 07:45:40;;;;;;;3.63;2.10;;;18.10;44.40;;;;;;5011065;28;20208;-68
2023/03/30 07:48:06;;;;;;;1.87;1.30;;;18.20;44.00;;;;;;5017086;28;20209;-68
2023/03/30 07:50:32;;;;;;;1.80;1.20;;;18.40;40.80;;;;;;5018066;28;20173;-69
2023/03/30 07:52:57;;;;;;;2.00;1.40;;;18.50;42.30;;;;;;5002873;28;20199;-68
2023/03/30 07:55:23;;;;;;;2.83;1.97;;;18.50;42.00;;;;;;5010859;28;20212;-68
2023/03/30 07:57:48;;;;;;;2.20;1.50;;;18.60;40.30;;;;;;5008313;28;20668;-71
2023/03/30 08:00:14;;;;;;;2.10;1.40;;;19.10;38.70;;;;;;5010376;28;20706;-67
2023/03/30 08:02:41;;;;;;;2.03;1.30;;;19.20;40.30;;;;;;5011865;28;20732;-66
2023/03/30 08:05:08;;;;;;;2.00;1.30;;;19.10;37.90;;;;;;5015780;28;20782;-68
2023/03/30 08:07:34;;;;;;;2.17;1.40;;;18.70;39.60;;;;;;5009540;28;20991;-68
2023/03/30 08:10:00;;;;;;;2.00;1.20;;;18.60;40.30;;;;;;5009315;28;20464;-67
2023/03/30 08:12:26;;;;;;;2.20;1.40;;;18.00;41.20;;;;;;5008058;28;20442;-67
2023/03/30 08:14:51;;;;;;;2.70;1.27;;;18.30;42.60;;;;;;5011358;28;20422;-67
2023/03/30 08:17:18;;;;;;;2.00;1.10;;;17.90;42.80;;;;;;5010391;28;20818;-67
2023/03/30 08:19:44;;;;;;;2.00;1.13;;;18.20;41.90;;;;;;5005472;28;20175;-67
2023/03/30 08:22:10;;;;;;;2.20;1.30;;;18.50;40.40;;;;;;5008803;28;20516;-68
2023/03/30 08:24:36;;;;;;;2.87;1.63;;;17.90;41.70;;;;;;5007844;28;20191;-67
2023/03/30 08:27:02;;;;;;;2.00;1.23;;;17.80;44.00;;;;;;4998866;28;20447;-67
2023/03/30 08:29:30;;;;;;;2.00;1.20;;;17.60;44.40;;;;;;5008999;28;20877;-67
2023/03/30 08:31:56;;;;;;;1.97;1.27;;;16.60;50.20;;;;;;5010123;28;20442;-67
2023/03/30 08:34:21;;;;;;;2.30;1.50;;;16.40;52.80;;;;;;5010981;28;20433;-67
2023/03/30 08:36:47;;;;;;;2.43;1.33;;;16.20;55.40;;;;;;5008424;28;20209;-68
2023/03/30 08:39:14;;;;;;;1.93;1.37;;;15.90;59.60;;;;;;5011008;28;20202;-68
2023/03/30 08:42:05;;;;;;;2.00;1.30;;;15.90;60.20;;;;;;5011617;28;20177;-68
2023/03/30 08:44:33;;;;;;;1.80;1.20;;;15.60;65.30;;;;;;4972689;28;20426;-71
2023/03/30 08:47:05;;;;;;;2.03;1.43;;;16.30;60.70;;;;;;4991689;28;20900;-68
2023/03/30 08:49:39;;;;;;;3.13;2.23;;;17.00;55.10;;;;;;5007839;28;20541;-67
2023/03/30 08:52:07;;;;;;;1.90;1.40;;;16.80;57.60;;;;;;5011322;28;20420;-68
2023/03/30 08:54:33;;;;;;;3.20;1.80;;;16.80;56.60;;;;;;5011188;28;20786;-69
2023/03/30 08:57:16;;;;;;;4.87;1.53;;;16.90;56.60;;;;;;5010964;28;20459;-68
2023/03/30 08:59:45;;;;;;;2.10;1.50;;;16.70;57.10;;;;;;5009220;28;20588;-69
2023/03/30 09:02:22;;;;;;;3.23;1.90;;;17.00;55.80;;;;;;5010840;28;20565;-67
2023/03/30 09:05:06;;;;;;;1.80;1.30;;;16.50;57.80;;;;;;5001661;28;20941;-68
2023/03/30 09:07:40;;;;;;;1.90;1.40;;;16.20;59.80;;;;;;5011136;28;20523;-68
2023/03/30 09:10:14;;;;;;;1.87;1.37;;;16.30;60.20;;;;;;5007412;28;21049;-68
2023/03/30 09:12:42;;;;;;;1.70;1.10;;;16.50;60.50;;;;;;5009163;28;21200;-68
2023/03/30 09:15:49;;;;;;;1.80;1.20;;;16.10;62.90;;;;;;5009304;28;20440;-68
2023/03/30 09:18:26;;;;;;;1.80;1.20;;;16.20;60.10;;;;;;4954340;28;20528;-68
2023/03/30 09:20:56;;;;;;;1.73;1.20;;;16.30;58.60;;;;;;4954014;29;20429;-68
2023/03/30 09:23:23;;;;;;;1.80;1.20;;;16.50;57.50;;;;;;4953581;28;20462;-69
2023/03/30 09:26:01;;;;;;;1.80;1.20;;;16.20;53.50;;;;;;4956381;28;20443;-73
2023/03/30 09:28:37;;;;;;;3.90;1.90;;;14.90;64.20;;;;;;4953222;29;20452;-68
2023/03/30 09:31:08;;;;;;;1.80;1.20;;;15.40;65.60;;;;;;4953669;29;20514;-68
2023/03/30 09:33:45;;;;;;;1.80;1.20;;;15.70;57.20;;;;;;4953146;29;20542;-69
2023/03/30 09:36:21;;;;;;;3.07;1.47;;;15.70;58.40;;;;;;4959723;28;22149;-69
2023/03/30 09:38:48;;;;;;;1.70;1.10;;;16.10;59.00;;;;;;4953193;29;20448;-68
2023/03/30 09:41:20;;;;;;;1.80;1.20;;;16.00;60.00;;;;;;4960897;28;20786;-68
2023/03/30 09:43:50;;;;;;;1.80;1.20;;;16.30;56.80;;;;;;4953489;29;20520;-68
2023/03/30 09:46:16;;;;;;;1.90;1.30;;;15.90;59.70;;;;;;4953345;29;20451;-68
2023/03/30 09:48:46;;;;;;;4.67;1.97;;;15.70;61.60;;;;;;4951654;29;20833;-68
2023/03/30 09:51:24;;;;;;;1.90;1.50;;;15.30;62.90;;;;;;4953328;29;20426;-67
2023/03/30 09:53:59;;;;;;;1.80;1.20;;;15.40;61.80;;;;;;4952781;28;20944;-70
2023/03/30 09:56:34;;;;;;;1.80;1.23;;;15.90;59.50;;;;;;5013170;28;20410;-68
2023/03/30 09:59:20;;;;;;;2.10;1.50;;;15.90;57.20;;;;;;5004541;28;20519;-68
2023/03/30 10:01:46;;;;;;;1.70;1.20;;;16.20;58.70;;;;;;5012198;28;20448;-73
2023/03/30 10:04:12;;;;;;;3.57;1.60;;;16.60;56.70;;;;;;5004468;28;20523;-68
2023/03/30 10:06:48;;;;;;;1.90;1.30;;;17.00;52.40;;;;;;5012631;28;20206;-68
2023/03/30 10:09:20;;;;;;;2.00;1.33;;;17.20;50.80;;;;;;5011481;28;20467;-68
2023/03/30 10:11:50;;;;;;;1.80;1.30;;;17.50;49.10;;;;;;4994089;28;20411;-68
2023/03/30 10:14:32;;;;;;;2.10;1.40;;;17.50;48.90;;;;;;4993487;28;20481;-68
2023/03/30 10:16:59;;;;;;;2.10;1.27;;;17.80;47.30;;;;;;5001125;28;21033;-68
2023/03/30 10:19:25;;;;;;;1.80;1.30;;;17.60;42.90;;;;;;5003558;28;20444;-68
2023/03/30 10:21:57;;;;;;;1.80;1.30;;;17.70;45.40;;;;;;5014473;28;20419;-68
2023/03/30 10:24:23;;;;;;;1.90;1.50;;;17.20;45.10;;;;;;5009517;28;20440;-68
2023/03/30 10:27:02;;;;;;;1.80;1.23;;;16.70;46.60;;;;;;5011404;28;20499;-66
2023/03/30 10:29:29;;;;;;;1.77;1.13;;;16.90;47.40;;;;;;5008144;28;20212;-68
2023/03/30 10:32:08;;;;;;;1.80;1.20;;;17.10;45.20;;;;;;5005968;28;20525;-68
2023/03/30 10:34:38;;;;;;;2.10;1.47;;;17.00;44.80;;;;;;5011901;28;20952;-68
2023/03/30 10:37:15;;;;;;;1.80;1.17;;;17.40;46.70;;;;;;5013186;28;20872;-68
2023/03/30 10:39:45;;;;;;;1.80;1.20;;;17.50;42.40;;;;;;5011980;28;20435;-67
2023/03/30 10:42:16;;;;;;;2.00;1.30;;;17.40;44.20;;;;;;5003956;28;20909;-68
2023/03/30 10:44:50;;;;;;;2.10;1.40;;;17.10;43.10;;;;;;5017680;28;20408;-67
2023/03/30 10:47:40;;;;;;;1.90;1.30;;;17.10;43.90;;;;;;5010893;28;20931;-68
2023/03/30 10:50:12;;;;;;;2.83;1.30;;;17.00;45.30;;;;;;4999048;28;20999;-70
2023/03/30 10:53:12;;;;;;;2.03;1.40;;;17.20;43.50;;;;;;5009734;28;20429;-68
2023/03/30 10:56:25;;;;;;;2.70;1.50;;;17.30;42.90;;;;;;5011092;28;20786;-71
2023/03/30 10:58:59;;;;;;;1.93;1.30;;;17.50;41.90;;;;;;4986482;28;20427;-72
2023/03/30 11:01:53;;;;;;;2.00;1.20;;;17.90;42.00;;;;;;5000151;28;20451;-71
2023/03/30 11:04:30;;;;;;;2.10;1.30;;;17.50;41.80;;;;;;5003131;28;20437;-70
2023/03/30 11:06:58;;;;;;;2.27;1.33;;;17.60;41.30;;;;;;5005538;28;20455;-72
2023/03/30 11:09:36;;;;;;;2.30;1.40;;;17.40;41.60;;;;;;5011592;28;20468;-70
2023/03/30 11:12:19;;;;;;;2.00;1.30;;;17.80;41.20;;;;;;5012496;28;20417;-69
2023/03/30 11:14:58;;;;;;;2.00;1.20;;;18.00;41.30;;;;;;5008607;28;20928;-69
2023/03/30 11:17:36;;;;;;;2.10;1.40;;;18.10;40.40;;;;;;5012231;28;20798;-71
2023/03/30 11:20:31;;;;;;;2.00;1.20;;;18.00;40.70;;;;;;5012750;28;20843;-68
2023/03/30 11:23:20;;;;;;;2.10;1.20;;;18.20;40.00;;;;;;5009696;28;20435;-71
2023/03/30 11:26:07;;;;;;;2.50;1.40;;;18.60;38.10;;;;;;5006958;28;20496;-69
2023/03/30 11:28:35;;;;;;;2.30;1.20;;;18.60;38.00;;;;;;5001637;28;20462;-71
2023/03/30 11:31:18;;;;;;;2.30;1.30;;;18.30;38.40;;;;;;5012029;28;20440;-68
2023/03/30 11:34:02;;;;;;;2.33;1.23;;;18.00;40.50;;;;;;5006301;28;20930;-71
2023/03/30 11:36:42;;;;;;;2.50;1.20;;;18.30;39.70;;;;;;5010045;28;20937;-69
2023/03/30 11:39:13;;;;;;;3.37;1.40;;;17.60;41.40;;;;;;5010853;28;20435;-68
2023/03/30 11:41:47;;;;;;;2.50;1.30;;;17.90;40.80;;;;;;5011569;28;20443;-69
2023/03/30 11:44:13;;;;;;;2.90;1.30;;;18.30;40.10;;;;;;5010936;28;20419;-70
2023/03/30 11:47:00;;;;;;;2.40;1.23;;;18.50;40.00;;;;;;5007886;28;20448;-70
2023/03/30 11:49:41;;;;;;;2.70;1.50;;;17.90;41.70;;;;;;5004900;28;20215;-69
2023/03/30 11:52:20;;;;;;;2.47;1.30;;;17.70;41.90;;;;;;5014317;28;20933;-70
2023/03/30 11:55:13;;;;;;;2.50;1.50;;;17.50;42.30;;;;;;5014174;28;20427;-69
2023/03/30 11:57:50;;;;;;;2.60;1.47;;;16.60;47.40;;;;;;5010464;28;20552;-67
2023/03/30 12:00:22;;;;;;;2.20;1.30;;;16.40;52.00;;;;;;5007980;28;20429;-69
2023/03/30 12:03:23;;;;;;;2.00;1.20;;;16.80;46.30;;;;;;5013264;28;20477;-69
2023/03/30 12:06:05;;;;;;;2.40;1.50;;;16.90;45.40;;;;;;5011869;28;20843;-70
2023/03/30 12:08:47;;;;;;;2.20;1.50;;;16.50;45.90;;;;;;5011396;28;20465;-70
2023/03/30 12:11:26;;;;;;;2.10;1.40;;;16.60;47.50;;;;;;5014493;28;20423;-68
2023/03/30 12:13:53;;;;;;;2.43;1.40;;;16.70;48.10;;;;;;5014179;28;20416;-69
2023/03/30 12:16:43;;;;;;;2.00;1.20;;;17.00;45.80;;;;;;5008741;28;20439;-70
2023/03/30 12:19:24;;;;;;;2.10;1.20;;;17.40;44.30;;;;;;5000157;28;20440;-68
2023/03/30 12:22:15;;;;;;;2.20;1.37;;;17.40;43.50;;;;;;5011682;28;20453;-69
2023/03/30 12:24:50;;;;;;;2.77;1.63;;;17.20;44.30;;;;;;5012817;28;20454;-70
2023/03/30 12:27:16;;;;;;;2.50;1.53;;;17.30;42.00;;;;;;5004304;28;20457;-68
2023/03/30 12:29:48;;;;;;;2.17;1.27;;;17.00;43.80;;;;;;5014315;28;20828;-70
2023/03/30 12:32:27;;;;;;;2.63;1.47;;;17.10;41.70;;;;;;5014601;28;20173;-69
2023/03/30 12:34:53;;;;;;;2.67;1.60;;;16.90;41.00;;;;;;5012394;28;20517;-68
2023/03/30 12:37:33;;;;;;;2.33;1.30;;;17.30;39.70;;;;;;5008924;28;21063;-69
2023/03/30 12:40:21;;;;;;;2.40;1.27;;;17.20;39.30;;;;;;4990049;28;20476;-68
2023/03/30 12:43:07;;;;;;;2.40;1.30;;;17.40;38.30;;;;;;4994928;28;20425;-70
2023/03/30 12:45:33;;;;;;;3.00;1.40;;;17.60;38.20;;;;;;5000498;28;20972;-68
2023/03/30 12:48:23;;;;;;;2.90;1.50;;;17.90;38.30;;;;;;5004965;28;20457;-69
2023/03/30 12:51:01;;;;;;;2.47;1.20;;;18.10;37.10;;;;;;5009648;28;20859;-70
2023/03/30 12:53:51;;;;;;;3.00;1.40;;;18.20;36.40;;;;;;5012881;28;20439;-70
2023/03/30 12:56:36;;;;;;;2.77;1.30;;;17.90;37.70;;;;;;5012559;28;20446;-68
2023/03/30 12:59:20;;;;;;;3.53;1.57;;;19.40;36.80;;;;;;5012775;28;20438;-70
2023/03/30 13:02:23;;;;;;;3.40;1.47;;;20.70;31.00;;;;;;4997022;28;20485;-69
2023/03/30 13:04:49;;;;;;;3.67;1.57;;;20.30;30.50;;;;;;4992419;28;20446;-70
2023/03/30 13:07:21;;;;;;;3.17;1.27;;;19.50;32.30;;;;;;5005132;28;20955;-68
2023/03/30 13:09:50;;;;;;;3.20;1.30;;;20.50;30.00;;;;;;5013427;28;20479;-68
2023/03/30 13:12:30;;;;;;;3.50;1.60;;;21.10;27.60;;;;;;5009917;28;20477;-68